Time;durP1;ratioP1;P1;durP2;ratioP2;P2;SDS_P1;SDS_P2;PMS_P1;PMS_P2;Temp;Humidity;BMP_temperature;BMP_pressure;BME280_temperature;BME280_humidity;BME280_pressure;Samples;Min_cycle;Max_cycle;Signal;HPM_P1;HPM_P2
2022/01/17 00:00:18;;;;;;;77.15;49.78;;;5.80;93.30;;;;;;5016757;28;20068;-75
2022/01/17 00:02:46;;;;;;;67.90;45.85;;;5.80;93.30;;;;;;5015062;28;20092;-74
2022/01/17 00:05:15;;;;;;;73.68;47.63;;;5.80;93.40;;;;;;5013687;28;20052;-76
2022/01/17 00:07:43;;;;;;;71.07;47.33;;;5.80;93.30;;;;;;5014001;28;20477;-75
2022/01/17 00:10:12;;;;;;;76.25;48.22;;;5.70;93.30;;;;;;5012098;28;20116;-75
2022/01/17 00:12:44;;;;;;;73.40;47.05;;;5.80;93.30;;;;;;5011773;28;20033;-75
2022/01/17 00:15:22;;;;;;;71.20;48.75;;;5.70;93.30;;;;;;5009657;28;20030;-75
2022/01/17 00:17:57;;;;;;;67.70;45.47;;;5.80;93.30;;;;;;5010223;28;20042;-77
2022/01/17 00:20:27;;;;;;;72.82;47.67;;;5.70;93.30;;;;;;5011180;28;20045;-75
2022/01/17 00:22:57;;;;;;;72.10;47.13;;;5.70;93.40;;;;;;5011902;28;20429;-76
2022/01/17 00:25:24;;;;;;;70.00;47.60;;;5.80;93.40;;;;;;5014287;28;20053;-75
2022/01/17 00:27:52;;;;;;;70.65;46.28;;;5.70;93.40;;;;;;5015440;28;20033;-74
2022/01/17 00:30:22;;;;;;;64.88;45.38;;;5.70;93.40;;;;;;5014175;28;20346;-75
2022/01/17 00:32:49;;;;;;;65.82;45.05;;;5.70;93.40;;;;;;5014761;28;20040;-76
2022/01/17 00:35:17;;;;;;;62.88;45.13;;;5.80;93.40;;;;;;5014678;28;20148;-74
2022/01/17 00:37:44;;;;;;;70.82;46.63;;;5.80;93.50;;;;;;5011388;28;20041;-74
2022/01/17 00:40:12;;;;;;;69.68;45.78;;;5.70;93.40;;;;;;5014664;28;20057;-75
2022/01/17 00:42:40;;;;;;;67.28;44.95;;;5.80;93.50;;;;;;5024812;28;20037;-74
2022/01/17 00:45:12;;;;;;;68.38;44.22;;;5.80;93.50;;;;;;5011275;28;20048;-75
2022/01/17 00:47:40;;;;;;;61.55;43.25;;;5.80;93.50;;;;;;5011847;28;20025;-73
2022/01/17 00:50:08;;;;;;;64.40;44.08;;;5.80;93.50;;;;;;5011257;28;20593;-74
2022/01/17 00:52:36;;;;;;;64.47;43.35;;;5.90;93.50;;;;;;5015773;28;20047;-75
2022/01/17 00:55:03;;;;;;;60.65;43.40;;;5.90;93.60;;;;;;5014717;28;20369;-74
2022/01/17 00:57:30;;;;;;;60.58;41.88;;;5.90;93.50;;;;;;5013230;28;20038;-76
2022/01/17 00:59:57;;;;;;;62.88;43.00;;;5.90;93.60;;;;;;5015723;28;20029;-75
2022/01/17 01:02:28;;;;;;;63.92;44.25;;;5.80;93.50;;;;;;5017120;28;20484;-73
2022/01/17 01:04:55;;;;;;;64.15;44.65;;;5.80;93.50;;;;;;5013825;28;20049;-76
2022/01/17 01:07:23;;;;;;;65.78;44.63;;;5.90;93.60;;;;;;5014344;28;20053;-76
2022/01/17 01:10:03;;;;;;;65.30;45.83;;;5.90;93.60;;;;;;5018416;28;20042;-74
2022/01/17 01:12:31;;;;;;;64.05;44.58;;;5.90;93.50;;;;;;5013476;28;20050;-75
2022/01/17 01:14:59;;;;;;;63.10;44.65;;;5.90;93.60;;;;;;5018941;28;20040;-76
2022/01/17 01:17:48;;;;;;;66.18;45.80;;;5.90;93.60;;;;;;5017212;28;20041;-75
2022/01/17 01:28:22;;;;;;;60.25;41.58;;;5.90;93.50;;;;;;5009283;28;20429;-74
2022/01/17 01:30:53;;;;;;;59.60;41.88;;;5.90;93.50;;;;;;5016852;28;20392;-75
2022/01/17 01:33:28;;;;;;;62.85;42.63;;;5.90;93.40;;;;;;5013808;28;20384;-77
2022/01/17 01:36:03;;;;;;;53.13;39.75;;;5.90;93.50;;;;;;5015700;28;20053;-74
2022/01/17 01:38:31;;;;;;;;;;;5.90;93.50;;;;;;5016081;28;20037;-75
2022/01/17 01:40:59;;;;;;;56.63;41.03;;;5.90;93.50;;;;;;5016467;28;19921;-75
2022/01/17 01:43:27;;;;;;;57.10;40.90;;;5.90;93.50;;;;;;5016545;28;20033;-74
2022/01/17 01:45:59;;;;;;;59.53;42.40;;;5.90;93.40;;;;;;5016780;28;20056;-75
2022/01/17 01:48:27;;;;;;;61.38;41.25;;;5.90;93.40;;;;;;5017938;28;20419;-75
2022/01/17 01:50:55;;;;;;;58.17;41.83;;;6.00;93.50;;;;;;5023914;28;20127;-76
2022/01/17 01:53:23;;;;;;;56.25;40.20;;;6.00;93.50;;;;;;5016393;28;20438;-75
2022/01/17 01:55:56;;;;;;;55.47;39.80;;;5.90;93.50;;;;;;5018063;28;20156;-74
2022/01/17 01:58:25;;;;;;;61.55;42.67;;;5.90;93.50;;;;;;5018361;28;21552;-73
2022/01/17 02:00:55;;;;;;;52.58;38.28;;;5.90;93.50;;;;;;5017180;28;20124;-74
2022/01/17 02:03:23;;;;;;;58.05;41.50;;;5.90;93.50;;;;;;5015014;28;22588;-74
2022/01/17 02:05:51;;;;;;;56.42;39.92;;;6.00;93.60;;;;;;5012137;28;20390;-74
2022/01/17 02:08:18;;;;;;;59.88;42.05;;;6.00;93.60;;;;;;5015655;28;20368;-73
2022/01/17 02:10:46;;;;;;;59.35;41.05;;;6.00;93.50;;;;;;5018546;28;20080;-74
2022/01/17 02:13:13;;;;;;;61.42;41.70;;;6.00;93.60;;;;;;5016664;28;20375;-75
2022/01/17 02:15:45;;;;;;;55.63;41.10;;;6.00;93.60;;;;;;5010828;28;20369;-75
2022/01/17 02:18:19;;;;;;;57.40;40.90;;;6.00;93.60;;;;;;5012671;28;20025;-72
2022/01/17 02:21:09;;;;;;;57.00;40.97;;;6.00;93.60;;;;;;5014231;28;20385;-73
2022/01/17 02:23:34;;;;;;;52.78;38.38;;;6.00;93.60;;;;;;5012120;28;20282;-76
2022/01/17 02:26:04;;;;;;;57.25;41.58;;;6.00;93.60;;;;;;5011544;28;20045;-75
2022/01/17 02:28:36;;;;;;;58.30;41.53;;;6.00;93.50;;;;;;5014060;28;20130;-75
2022/01/17 02:31:07;;;;;;;59.47;40.78;;;6.00;93.60;;;;;;5018029;28;20056;-75
2022/01/17 02:33:36;;;;;;;57.83;39.88;;;6.00;93.50;;;;;;5016732;28;20042;-73
2022/01/17 02:36:04;;;;;;;56.97;41.38;;;6.00;93.50;;;;;;5011692;28;20522;-77
2022/01/17 02:38:34;;;;;;;56.20;40.75;;;6.00;93.50;;;;;;5016656;28;20049;-74
2022/01/17 02:41:01;;;;;;;57.03;42.38;;;6.00;93.50;;;;;;5010272;28;20029;-75
2022/01/17 02:43:31;;;;;;;56.65;42.33;;;6.00;93.50;;;;;;5019601;28;20578;-75
2022/01/17 02:48:32;;;;;;;55.08;38.83;;;6.00;93.50;;;;;;5015255;28;20052;-74
2022/01/17 02:51:00;;;;;;;54.22;39.30;;;6.00;93.60;;;;;;5016498;28;20032;-74
2022/01/17 02:53:27;;;;;;;56.38;41.03;;;6.00;93.60;;;;;;5016626;28;20322;-74
2022/01/17 02:56:06;;;;;;;53.33;39.75;;;6.00;93.60;;;;;;5014981;28;20053;-74
2022/01/17 02:58:33;;;;;;;55.20;41.40;;;6.00;93.60;;;;;;5019346;28;20469;-74
2022/01/17 03:01:02;;;;;;;59.67;42.45;;;6.00;93.60;;;;;;5015311;28;20022;-74
2022/01/17 03:03:30;;;;;;;55.03;39.03;;;6.10;93.60;;;;;;5018128;28;20040;-75
2022/01/17 03:05:57;;;;;;;54.38;39.47;;;6.00;93.70;;;;;;5015305;28;20062;-76
2022/01/17 03:08:29;;;;;;;58.03;41.53;;;6.10;93.60;;;;;;5017016;28;20421;-76
2022/01/17 03:10:56;;;;;;;55.70;39.90;;;6.10;93.60;;;;;;5013866;28;20057;-77
2022/01/17 03:13:29;;;;;;;57.00;39.25;;;6.10;93.60;;;;;;5017121;28;20048;-76
2022/01/17 03:15:57;;;;;;;55.30;38.83;;;6.10;93.60;;;;;;5014857;28;20470;-75
2022/01/17 03:18:25;;;;;;;61.08;40.10;;;6.10;93.50;;;;;;5014772;28;20127;-75
2022/01/17 03:20:51;;;;;;;59.33;42.58;;;6.10;93.50;;;;;;5016991;28;20037;-75
2022/01/17 03:23:17;;;;;;;56.58;40.70;;;6.10;93.60;;;;;;5011484;28;20041;-75
2022/01/17 03:25:42;;;;;;;60.10;42.08;;;6.00;93.50;;;;;;5017101;28;20037;-74
2022/01/17 03:28:08;;;;;;;58.95;42.58;;;6.10;93.60;;;;;;5014201;28;20034;-75
2022/01/17 03:30:34;;;;;;;58.97;42.03;;;6.10;93.60;;;;;;5016213;28;20135;-75
2022/01/17 03:33:02;;;;;;;60.67;43.53;;;6.00;93.60;;;;;;5016390;28;20105;-74
2022/01/17 03:35:27;;;;;;;59.50;41.90;;;6.00;93.60;;;;;;5015233;28;20520;-76
2022/01/17 03:37:53;;;;;;;61.63;42.55;;;6.10;93.60;;;;;;5019162;28;20032;-74
2022/01/17 03:40:19;;;;;;;64.55;45.00;;;6.10;93.60;;;;;;5015638;28;20029;-76
2022/01/17 03:42:44;;;;;;;57.30;42.20;;;6.10;93.70;;;;;;5016374;28;20045;-75
2022/01/17 03:45:11;;;;;;;57.22;43.15;;;6.10;93.70;;;;;;5020414;28;20037;-73
2022/01/17 03:47:38;;;;;;;62.25;43.35;;;6.10;93.70;;;;;;5014245;28;20551;-73
2022/01/17 03:50:08;;;;;;;56.85;40.83;;;6.10;93.50;;;;;;5014597;28;20034;-73
2022/01/17 03:52:34;;;;;;;57.95;42.33;;;6.00;93.40;;;;;;5018123;28;20029;-76
2022/01/17 03:55:00;;;;;;;54.92;40.70;;;5.90;93.40;;;;;;5013538;28;20362;-75
2022/01/17 03:57:26;;;;;;;60.53;42.75;;;5.80;93.40;;;;;;5013176;28;20098;-74
2022/01/17 03:59:52;;;;;;;58.05;41.03;;;5.70;93.40;;;;;;5015969;28;20409;-74
2022/01/17 04:02:17;;;;;;;55.80;39.75;;;5.60;93.40;;;;;;5014603;28;20341;-76
2022/01/17 04:04:43;;;;;;;52.60;38.45;;;5.60;93.50;;;;;;5024358;28;20047;-74
2022/01/17 04:07:09;;;;;;;57.95;40.10;;;5.50;93.60;;;;;;5015656;28;20045;-75
2022/01/17 04:09:34;;;;;;;58.60;40.92;;;5.50;93.70;;;;;;5017644;28;20033;-74
2022/01/17 04:12:00;;;;;;;56.75;40.95;;;5.40;93.70;;;;;;5015531;28;20033;-74
2022/01/17 04:14:26;;;;;;;57.45;40.65;;;5.40;93.90;;;;;;5011387;28;20104;-76
2022/01/17 04:16:51;;;;;;;65.18;43.80;;;5.50;94.00;;;;;;5011023;28;20446;-75
2022/01/17 04:19:19;;;;;;;67.38;45.85;;;5.60;94.20;;;;;;5014995;28;20872;-76
2022/01/17 04:21:47;;;;;;;72.57;47.70;;;5.60;94.20;;;;;;5014275;28;20116;-76
2022/01/17 04:24:13;;;;;;;78.45;50.13;;;5.70;94.30;;;;;;5010586;28;20041;-75
2022/01/17 04:26:39;;;;;;;72.07;48.80;;;5.90;94.40;;;;;;5007369;28;20038;-74
2022/01/17 04:29:05;;;;;;;74.80;48.42;;;5.90;94.40;;;;;;5014862;28;20079;-76
2022/01/17 04:31:31;;;;;;;80.30;52.97;;;6.00;94.50;;;;;;5011698;28;20064;-74
2022/01/17 04:33:56;;;;;;;76.97;50.10;;;6.10;94.50;;;;;;5013889;28;20547;-73
2022/01/17 04:36:22;;;;;;;71.18;48.55;;;6.10;94.50;;;;;;5010534;28;20038;-74
2022/01/17 04:38:48;;;;;;;73.30;50.25;;;6.10;94.40;;;;;;5014761;28;20132;-74
2022/01/17 04:41:15;;;;;;;77.28;50.60;;;6.20;94.40;;;;;;5017048;28;20047;-75
2022/01/17 04:43:57;;;;;;;71.00;47.90;;;6.20;94.40;;;;;;5014595;28;20026;-75
2022/01/17 04:46:23;;;;;;;73.13;48.03;;;6.20;94.30;;;;;;5019263;28;20034;-77
2022/01/17 04:48:48;;;;;;;75.78;49.83;;;6.20;94.30;;;;;;5011344;28;20135;-75
2022/01/17 04:51:14;;;;;;;74.72;48.55;;;6.20;94.20;;;;;;5015952;28;20029;-75
2022/01/17 04:53:42;;;;;;;67.57;46.30;;;6.20;94.20;;;;;;5015706;28;20033;-76
2022/01/17 04:56:08;;;;;;;72.63;49.05;;;6.20;94.20;;;;;;5006562;28;20233;-77
2022/01/17 04:58:33;;;;;;;68.32;47.63;;;6.20;94.20;;;;;;5014343;28;20552;-75
2022/01/17 05:00:59;;;;;;;69.03;47.83;;;6.10;94.10;;;;;;5018738;28;20064;-74
2022/01/17 05:03:26;;;;;;;70.32;46.85;;;6.10;94.10;;;;;;5015772;28;20036;-76
2022/01/17 05:05:51;;;;;;;68.93;46.92;;;6.10;94.10;;;;;;5015692;28;20038;-77
2022/01/17 05:08:18;;;;;;;71.22;47.60;;;6.10;94.10;;;;;;5012547;28;20040;-76
2022/01/17 05:10:51;;;;;;;75.32;48.13;;;6.00;94.10;;;;;;5016592;28;20033;-76
2022/01/17 05:13:21;;;;;;;72.72;46.67;;;6.00;94.10;;;;;;5012974;28;20087;-76
2022/01/17 05:15:53;;;;;;;69.93;46.60;;;6.00;94.10;;;;;;5012736;28;20095;-75
2022/01/17 05:19:48;;;;;;;73.70;48.08;;;5.90;94.10;;;;;;5018354;28;20424;-74
2022/01/17 05:21:10;;;;;;;71.43;47.03;;;5.90;94.00;;;;;;5031562;28;20021;-73
2022/01/17 05:23:36;;;;;;;74.90;47.50;;;5.80;94.00;;;;;;5018852;28;20120;-76
2022/01/17 05:26:02;;;;;;;79.00;47.78;;;5.80;94.00;;;;;;5005762;28;20497;-76
2022/01/17 05:28:28;;;;;;;70.80;46.10;;;5.70;94.10;;;;;;5015801;28;20492;-76
2022/01/17 05:30:53;;;;;;;76.93;49.70;;;5.80;94.30;;;;;;5007586;28;20306;-75
2022/01/17 05:33:19;;;;;;;72.70;47.55;;;5.80;94.30;;;;;;5011393;28;20053;-78
2022/01/17 05:35:45;;;;;;;81.18;48.47;;;5.80;94.30;;;;;;5012502;28;20046;-76
2022/01/17 05:38:10;;;;;;;81.07;48.45;;;5.80;94.40;;;;;;5008272;28;20397;-74
2022/01/17 05:40:36;;;;;;;76.65;50.13;;;5.80;94.40;;;;;;5008905;28;20069;-77
2022/01/17 05:43:02;;;;;;;78.25;47.78;;;5.80;94.50;;;;;;5014026;28;20029;-77
2022/01/17 05:45:27;;;;;;;81.97;48.53;;;5.90;94.50;;;;;;5023195;28;20394;-76
2022/01/17 05:47:53;;;;;;;77.95;48.80;;;5.90;94.60;;;;;;5024800;28;20036;-73
2022/01/17 05:50:19;;;;;;;71.80;46.13;;;6.00;94.60;;;;;;5018707;28;20117;-76
2022/01/17 05:52:45;;;;;;;84.38;47.15;;;6.00;94.60;;;;;;5016361;28;20037;-76
2022/01/17 05:55:13;;;;;;;78.22;47.45;;;6.10;94.60;;;;;;5011596;28;20030;-76
2022/01/17 05:57:39;;;;;;;75.97;45.95;;;6.10;94.60;;;;;;5012422;28;20028;-77
2022/01/17 06:00:09;;;;;;;71.28;40.95;;;6.10;94.60;;;;;;5006799;28;20029;-76
2022/01/17 06:02:34;;;;;;;71.13;42.20;;;6.10;94.60;;;;;;5008848;28;20457;-76
2022/01/17 06:05:00;;;;;;;71.15;41.60;;;6.00;94.50;;;;;;5013687;28;20859;-75
2022/01/17 06:07:26;;;;;;;62.17;40.13;;;6.00;94.50;;;;;;5016207;28;20037;-76
2022/01/17 06:09:51;;;;;;;66.97;39.42;;;6.00;94.50;;;;;;5016757;28;20560;-75
2022/01/17 06:12:17;;;;;;;69.95;41.58;;;6.00;94.40;;;;;;5009805;28;20044;-75
2022/01/17 06:14:43;;;;;;;67.82;40.20;;;6.00;94.40;;;;;;5013515;28;20387;-77
2022/01/17 06:17:08;;;;;;;67.50;39.83;;;6.10;94.50;;;;;;5009709;28;20578;-79
2022/01/17 06:19:34;;;;;;;68.00;41.58;;;6.10;94.50;;;;;;5009809;28;20034;-76
2022/01/17 06:22:00;;;;;;;65.05;39.47;;;6.10;94.40;;;;;;5012813;28;20037;-77
2022/01/17 06:24:26;;;;;;;67.90;39.28;;;6.10;94.40;;;;;;5026793;28;20141;-73
2022/01/17 06:26:51;;;;;;;67.00;39.85;;;6.10;94.30;;;;;;5029355;28;20033;-72
2022/01/17 06:29:18;;;;;;;62.58;38.47;;;6.10;94.30;;;;;;5027380;28;20107;-73
2022/01/17 06:31:44;;;;;;;66.85;39.97;;;6.10;94.10;;;;;;5017702;28;20069;-75
2022/01/17 06:34:11;;;;;;;69.07;42.78;;;6.10;94.10;;;;;;5021901;28;20041;-73
2022/01/17 06:36:42;;;;;;;72.13;41.97;;;6.00;94.10;;;;;;5014266;28;20079;-75
2022/01/17 06:39:10;;;;;;;75.35;41.65;;;6.00;94.10;;;;;;5017882;28;20034;-77
2022/01/17 06:41:36;;;;;;;68.93;42.10;;;6.00;94.00;;;;;;5016607;28;20477;-76
2022/01/17 06:44:02;;;;;;;66.80;40.15;;;5.90;93.80;;;;;;5011696;28;20169;-74
2022/01/17 06:46:29;;;;;;;63.38;39.67;;;5.90;93.90;;;;;;5009631;28;20050;-74
2022/01/17 06:48:55;;;;;;;59.20;37.70;;;5.80;93.80;;;;;;5014348;28;20029;-73
2022/01/17 06:51:21;;;;;;;61.60;38.00;;;5.70;93.80;;;;;;5013467;28;20250;-74
2022/01/17 06:53:48;;;;;;;65.32;36.80;;;5.70;93.80;;;;;;5011571;28;20274;-76
2022/01/17 06:56:14;;;;;;;62.50;36.10;;;5.60;93.80;;;;;;5016841;28;20686;-75
2022/01/17 06:58:42;;;;;;;54.63;35.33;;;5.60;93.80;;;;;;5015105;28;20037;-76
2022/01/17 07:01:10;;;;;;;55.50;33.75;;;5.60;93.80;;;;;;5009689;28;20053;-75
2022/01/17 07:03:37;;;;;;;57.88;32.83;;;5.50;93.70;;;;;;5017369;28;20026;-72
2022/01/17 07:06:04;;;;;;;52.13;32.15;;;5.40;93.80;;;;;;5015478;28;20049;-71
2022/01/17 07:08:30;;;;;;;57.33;32.42;;;5.30;93.80;;;;;;5015857;28;20129;-70
2022/01/17 07:10:56;;;;;;;57.30;30.80;;;5.30;93.80;;;;;;5012903;28;20041;-71
2022/01/17 07:13:22;;;;;;;51.03;29.27;;;5.30;93.80;;;;;;5010397;28;20037;-71
2022/01/17 07:15:49;;;;;;;53.63;29.33;;;5.20;93.80;;;;;;5015487;28;20046;-71
2022/01/17 07:18:15;;;;;;;44.00;27.60;;;5.20;93.80;;;;;;5013502;28;20365;-71
2022/01/17 07:20:42;;;;;;;51.67;28.70;;;5.10;93.70;;;;;;5016189;28;20408;-73
2022/01/17 07:23:09;;;;;;;47.85;28.60;;;5.10;93.70;;;;;;5016541;28;20037;-72
2022/01/17 07:25:38;;;;;;;48.90;27.02;;;5.10;93.80;;;;;;5014639;28;20258;-72
2022/01/17 07:28:09;;;;;;;48.05;25.17;;;5.10;93.80;;;;;;5016089;28;20037;-72
2022/01/17 07:30:37;;;;;;;48.28;25.58;;;5.10;93.70;;;;;;5010857;28;20092;-71
2022/01/17 07:33:06;;;;;;;49.67;24.75;;;5.00;93.60;;;;;;5012533;28;20045;-71
2022/01/17 07:35:36;;;;;;;45.03;24.55;;;4.90;93.60;;;;;;5015654;28;20057;-71
2022/01/17 07:38:04;;;;;;;42.60;24.40;;;4.90;93.60;;;;;;5015451;28;20120;-71
2022/01/17 07:40:33;;;;;;;49.22;25.75;;;4.90;93.70;;;;;;5015984;28;20041;-70
2022/01/17 07:43:01;;;;;;;47.53;24.58;;;4.90;93.60;;;;;;5015367;28;20465;-70
2022/01/17 07:45:30;;;;;;;43.65;23.08;;;4.90;93.60;;;;;;5016459;28;20108;-71
2022/01/17 07:48:11;;;;;;;46.40;23.13;;;5.00;93.70;;;;;;5012917;28;20048;-72
2022/01/17 07:50:39;;;;;;;53.25;24.80;;;5.10;93.60;;;;;;5015204;28;20087;-71
2022/01/17 07:53:08;;;;;;;47.72;24.63;;;5.10;93.50;;;;;;5013026;28;20322;-70
2022/01/17 07:55:35;;;;;;;48.28;25.58;;;5.10;93.50;;;;;;5016521;28;20029;-73
2022/01/17 07:58:03;;;;;;;45.35;24.13;;;5.10;93.30;;;;;;5012488;28;20112;-70
2022/01/17 08:00:30;;;;;;;49.75;24.23;;;5.10;93.30;;;;;;5012767;28;20124;-73
2022/01/17 08:02:58;;;;;;;45.13;22.45;;;5.10;93.20;;;;;;5013019;28;20464;-71
2022/01/17 08:05:26;;;;;;;38.30;21.08;;;5.10;93.10;;;;;;5011264;28;20042;-72
2022/01/17 08:07:53;;;;;;;43.70;20.60;;;5.10;93.10;;;;;;5012173;28;20067;-72
2022/01/17 08:10:21;;;;;;;36.13;20.02;;;5.10;93.00;;;;;;5012442;28;20466;-70
2022/01/17 08:12:49;;;;;;;42.55;21.02;;;5.20;92.90;;;;;;5006338;28;20034;-71
2022/01/17 08:15:18;;;;;;;38.40;19.70;;;5.20;92.80;;;;;;5009543;28;20061;-70
2022/01/17 08:17:46;;;;;;;37.88;19.63;;;5.20;92.70;;;;;;5011022;28;20639;-71
2022/01/17 08:20:15;;;;;;;41.72;18.30;;;5.20;92.70;;;;;;5010952;28;20073;-70
2022/01/17 08:22:45;;;;;;;39.10;19.63;;;5.20;92.60;;;;;;5013996;28;20037;-71
2022/01/17 08:25:13;;;;;;;40.13;18.80;;;5.20;92.50;;;;;;5008754;28;20037;-72
2022/01/17 08:27:40;;;;;;;37.33;18.17;;;5.20;92.40;;;;;;5012256;28;20159;-71
2022/01/17 08:30:09;;;;;;;38.55;18.67;;;5.30;92.30;;;;;;5012055;28;20377;-72
2022/01/17 08:32:37;;;;;;;37.20;18.30;;;5.20;92.30;;;;;;5012728;28;20041;-71
2022/01/17 08:35:05;;;;;;;36.92;19.45;;;5.20;92.20;;;;;;5012206;28;20045;-71
2022/01/17 08:37:33;;;;;;;34.65;17.65;;;5.20;92.10;;;;;;5007003;28;20033;-73
2022/01/17 08:40:00;;;;;;;45.35;20.25;;;5.20;92.10;;;;;;5009745;28;20052;-72
2022/01/17 08:42:30;;;;;;;37.85;18.55;;;5.10;92.10;;;;;;5012205;28;20087;-72
2022/01/17 08:44:58;;;;;;;37.90;18.67;;;5.10;91.90;;;;;;5012826;28;20445;-71
2022/01/17 08:47:26;;;;;;;37.97;19.52;;;5.10;91.80;;;;;;5008391;28;20026;-71
2022/01/17 08:49:55;;;;;;;36.38;19.67;;;5.10;91.90;;;;;;5011042;28;20037;-70
2022/01/17 08:52:23;;;;;;;38.13;20.95;;;5.10;91.80;;;;;;5010585;28;20045;-71
2022/01/17 08:54:50;;;;;;;41.20;19.77;;;5.20;91.80;;;;;;5008518;28;20025;-72
2022/01/17 08:57:18;;;;;;;39.88;19.85;;;5.30;91.80;;;;;;5012688;28;20733;-69
2022/01/17 08:59:45;;;;;;;42.20;21.00;;;5.30;91.60;;;;;;5006143;28;20037;-71
2022/01/17 09:02:12;;;;;;;39.03;20.98;;;5.40;91.40;;;;;;5008116;28;20057;-71
2022/01/17 09:04:41;;;;;;;40.47;21.52;;;5.40;91.20;;;;;;5011787;28;20080;-70
2022/01/17 09:07:10;;;;;;;42.15;20.70;;;5.50;91.10;;;;;;5011505;28;20111;-70
2022/01/17 09:09:40;;;;;;;37.88;20.98;;;5.60;90.90;;;;;;5009816;28;20480;-72
2022/01/17 09:12:08;;;;;;;33.50;19.30;;;5.60;90.20;;;;;;5011150;28;20460;-71
2022/01/17 09:14:34;;;;;;;31.60;19.42;;;5.70;90.20;;;;;;5014920;28;20059;-71
2022/01/17 09:17:00;;;;;;;40.13;19.80;;;5.90;90.00;;;;;;5013261;28;20473;-71
2022/01/17 09:19:28;;;;;;;35.50;19.33;;;6.00;89.30;;;;;;5014815;28;20061;-73
2022/01/17 09:21:54;;;;;;;35.50;18.67;;;6.10;89.30;;;;;;5015982;28;20034;-72
2022/01/17 09:24:21;;;;;;;33.47;17.60;;;6.10;88.60;;;;;;5015880;28;20128;-72
2022/01/17 09:26:47;;;;;;;31.08;17.77;;;6.20;88.60;;;;;;5010568;28;20045;-72
2022/01/17 09:29:14;;;;;;;33.08;17.33;;;6.40;88.40;;;;;;5018790;28;20755;-72
2022/01/17 09:31:40;;;;;;;34.45;16.88;;;6.40;87.70;;;;;;5014441;28;20401;-71
2022/01/17 09:34:06;;;;;;;41.67;18.10;;;6.50;87.60;;;;;;5014210;28;20095;-72
2022/01/17 09:36:34;;;;;;;32.20;17.17;;;6.60;87.40;;;;;;5016552;28;20389;-70
2022/01/17 09:39:08;;;;;;;33.00;16.08;;;6.70;87.20;;;;;;5012801;28;20757;-71
2022/01/17 09:41:34;;;;;;;31.77;17.57;;;6.80;86.70;;;;;;5015977;28;20790;-70
2022/01/17 09:44:01;;;;;;;34.55;16.83;;;6.90;86.50;;;;;;5013295;28;20873;-69
2022/01/17 09:46:33;;;;;;;39.13;17.75;;;6.90;86.40;;;;;;5012142;28;20048;-70
2022/01/17 09:49:13;;;;;;;31.45;15.77;;;7.00;86.40;;;;;;5011930;28;20080;-71
2022/01/17 09:54:28;;;;;;;34.22;15.85;;;7.10;86.00;;;;;;5013782;28;20050;-70
2022/01/17 09:56:55;;;;;;;26.65;14.63;;;7.10;85.80;;;;;;5015536;28;20285;-70
2022/01/17 09:59:22;;;;;;;30.42;14.52;;;7.20;86.00;;;;;;5011540;28;20151;-70
2022/01/17 10:01:49;;;;;;;28.40;14.65;;;7.20;85.20;;;;;;5013522;28;20040;-69
2022/01/17 10:04:17;;;;;;;26.95;14.80;;;7.20;85.50;;;;;;5013645;28;20477;-72
2022/01/17 10:06:51;;;;;;;32.35;15.30;;;7.30;85.50;;;;;;5011863;28;20072;-72
2022/01/17 10:09:21;;;;;;;28.20;15.75;;;7.20;84.90;;;;;;5026463;28;20092;-71
2022/01/17 10:12:06;;;;;;;24.35;14.07;;;7.20;85.50;;;;;;5015374;28;20511;-70
2022/01/17 10:14:42;;;;;;;27.67;14.55;;;7.30;85.80;;;;;;5016160;28;20504;-70
2022/01/17 10:17:17;;;;;;;27.40;14.30;;;7.40;85.40;;;;;;5014418;28;20033;-70
2022/01/17 10:19:44;;;;;;;25.98;14.15;;;7.40;85.50;;;;;;5017282;28;20385;-70
2022/01/17 10:22:16;;;;;;;30.67;15.55;;;7.40;85.70;;;;;;5015401;28;20112;-69
2022/01/17 10:27:54;;;;;;;25.40;12.93;;;7.50;85.20;;;;;;5015293;28;20545;-69
2022/01/17 10:35:35;;;;;;;30.13;13.90;;;7.70;84.90;;;;;;5017009;28;20498;-71
2022/01/17 10:38:17;;;;;;;24.42;12.70;;;7.60;85.00;;;;;;5023709;28;20033;-69
2022/01/17 10:40:45;;;;;;;28.98;11.88;;;7.70;84.80;;;;;;5014222;28;20045;-70
2022/01/17 10:43:34;;;;;;;32.72;11.65;;;7.80;84.80;;;;;;5011890;28;20828;-69
2022/01/17 10:46:03;;;;;;;25.08;11.10;;;7.80;84.20;;;;;;5015645;28;20319;-70
2022/01/17 10:48:52;;;;;;;23.63;11.30;;;7.60;84.90;;;;;;5012714;28;20084;-70
2022/01/17 10:51:32;;;;;;;23.67;10.15;;;7.80;85.30;;;;;;5010897;28;20108;-70
2022/01/17 10:54:10;;;;;;;25.02;10.20;;;8.10;84.40;;;;;;5011625;28;20040;-68
2022/01/17 10:56:50;;;;;;;25.65;11.23;;;8.00;84.00;;;;;;5013997;28;20139;-70
2022/01/17 10:59:36;;;;;;;22.42;10.68;;;8.10;84.60;;;;;;5014348;28;20120;-71
2022/01/17 11:02:04;;;;;;;22.25;9.90;;;8.20;83.50;;;;;;5012451;28;20184;-70
2022/01/17 11:04:35;;;;;;;26.25;9.20;;;8.00;83.80;;;;;;5017674;28;20037;-70
2022/01/17 11:07:07;;;;;;;27.10;9.75;;;7.90;84.30;;;;;;5011014;28;20096;-72
2022/01/17 11:09:47;;;;;;;25.20;11.10;;;7.90;84.60;;;;;;5012456;28;20033;-70
2022/01/17 11:12:15;;;;;;;25.27;10.55;;;7.90;85.00;;;;;;5013140;28;20026;-70
2022/01/17 11:14:42;;;;;;;25.13;9.57;;;7.90;85.50;;;;;;5016123;28;20030;-70
2022/01/17 11:17:26;;;;;;;29.92;10.02;;;7.80;85.50;;;;;;5014804;28;20076;-68
2022/01/17 11:20:07;;;;;;;26.42;9.80;;;8.00;85.60;;;;;;5014383;28;20044;-70
2022/01/17 11:22:37;;;;;;;27.15;9.02;;;8.00;85.50;;;;;;5012894;28;20499;-70
2022/01/17 11:25:06;;;;;;;30.05;10.07;;;8.10;85.80;;;;;;5009254;28;21035;-71
2022/01/17 11:27:32;;;;;;;23.58;8.88;;;8.40;84.90;;;;;;5015360;28;20033;-70
2022/01/17 11:29:58;;;;;;;23.77;8.80;;;8.40;84.40;;;;;;5015933;28;20038;-69
2022/01/17 11:32:25;;;;;;;25.88;8.10;;;8.40;84.50;;;;;;5011166;28;20060;-70
2022/01/17 11:34:57;;;;;;;19.70;8.23;;;8.50;85.00;;;;;;5014182;28;20503;-69
2022/01/17 11:37:26;;;;;;;29.73;8.82;;;8.60;83.80;;;;;;5011954;28;20365;-71
2022/01/17 11:39:57;;;;;;;24.70;8.35;;;8.40;84.10;;;;;;5013776;28;20037;-69
2022/01/17 11:42:39;;;;;;;28.08;9.02;;;8.50;84.10;;;;;;5007715;28;20336;-69
2022/01/17 11:45:24;;;;;;;24.10;9.32;;;8.50;83.90;;;;;;5011393;28;20421;-70
2022/01/17 11:47:58;;;;;;;27.80;9.25;;;8.40;84.10;;;;;;5011665;28;20045;-71
2022/01/17 11:50:45;;;;;;;24.75;10.15;;;8.40;84.40;;;;;;5011422;28;20199;-69
2022/01/17 11:53:11;;;;;;;25.70;9.10;;;8.30;84.60;;;;;;5010375;28;20134;-70
2022/01/17 11:55:42;;;;;;;30.80;9.07;;;8.40;84.50;;;;;;5013615;28;20120;-70
2022/01/17 11:58:27;;;;;;;22.63;7.50;;;8.40;84.60;;;;;;5010682;28;20037;-70
2022/01/17 12:00:59;;;;;;;28.20;9.35;;;8.50;84.10;;;;;;5011371;28;20471;-70
2022/01/17 12:03:48;;;;;;;21.13;8.13;;;8.50;83.70;;;;;;5013583;28;20034;-72
2022/01/17 12:06:27;;;;;;;24.27;8.07;;;8.40;83.40;;;;;;5013491;28;20056;-70
2022/01/17 12:09:23;;;;;;;23.48;7.22;;;8.40;83.60;;;;;;5015043;28;20037;-70
2022/01/17 12:12:10;;;;;;;26.00;7.88;;;8.30;84.00;;;;;;5011221;28;20050;-71
2022/01/17 12:14:41;;;;;;;31.52;9.27;;;8.30;84.00;;;;;;5012505;28;20493;-70
2022/01/17 12:17:26;;;;;;;25.35;8.60;;;8.30;84.30;;;;;;5011109;28;20044;-70
2022/01/17 12:20:17;;;;;;;24.15;8.55;;;8.30;84.50;;;;;;5011655;28;20110;-70
2022/01/17 12:22:45;;;;;;;27.75;8.25;;;8.50;84.10;;;;;;4999712;28;20087;-71
2022/01/17 12:25:24;;;;;;;23.20;8.48;;;8.50;84.10;;;;;;5010361;28;20432;-71
2022/01/17 12:28:13;;;;;;;21.52;8.85;;;8.50;83.90;;;;;;5010198;28;20472;-68
2022/01/17 12:30:56;;;;;;;21.00;8.30;;;8.50;83.90;;;;;;5012266;28;20116;-70
2022/01/17 12:33:40;;;;;;;27.40;7.97;;;8.50;83.60;;;;;;5009375;28;20492;-69
2022/01/17 12:36:27;;;;;;;30.55;9.68;;;8.50;83.90;;;;;;5005624;28;20049;-69
2022/01/17 12:39:10;;;;;;;24.00;8.82;;;8.50;84.10;;;;;;5006601;28;20370;-69
2022/01/17 12:41:38;;;;;;;24.58;10.07;;;8.50;84.40;;;;;;5008884;28;20056;-69
2022/01/17 12:44:28;;;;;;;29.08;9.27;;;8.50;84.70;;;;;;5010249;28;20536;-70
2022/01/17 12:46:59;;;;;;;24.15;9.90;;;8.40;84.90;;;;;;5005430;28;20037;-70
2022/01/17 12:49:26;;;;;;;23.27;9.52;;;8.40;84.60;;;;;;5005925;28;20533;-71
2022/01/17 12:51:54;;;;;;;20.50;8.95;;;8.30;84.50;;;;;;5008353;28;20042;-70
2022/01/17 12:54:23;;;;;;;22.83;9.80;;;8.40;84.50;;;;;;5010632;28;20029;-69
2022/01/17 12:56:52;;;;;;;24.40;9.18;;;8.60;84.40;;;;;;5012899;28;20786;-69
2022/01/17 12:59:20;;;;;;;23.00;8.63;;;8.50;84.40;;;;;;5015059;28;20064;-70
2022/01/17 13:01:52;;;;;;;30.25;11.25;;;8.50;84.90;;;;;;5015414;28;20076;-72
2022/01/17 13:04:19;;;;;;;28.08;10.50;;;8.60;84.90;;;;;;5016072;28;20026;-71
2022/01/17 13:06:47;;;;;;;23.05;10.00;;;8.70;84.70;;;;;;5018053;28;20053;-71
2022/01/17 13:09:15;;;;;;;23.60;9.20;;;8.80;84.60;;;;;;5018160;28;20720;-70
2022/01/17 13:11:43;;;;;;;23.70;8.65;;;8.80;84.00;;;;;;5016409;28;20033;-71